CheckWX is a tool to help pilots better visualize weather data.  It is not intended as a substitute for an official pre-flight weather briefing.

15:45:13 UTC

KHIB TAF
Range Regional Airport
Hibbing, Minnesota, USA
KHIB 171332Z 1714/1812 15005KT P6SM SCT020 TEMPO 1714/1715 1/4SM FG BKN001 FM171800 15007KT P6SM SKC FM181000 13010KT P6SM SCT200 WS020/18040KT

Oct-17@
14:00 UTC

Oct-17 @ 14:00 UTC

Oct-17@
18:00 UTC

Oct-17 @ 18:00 UTC

KHIB 171332Z 1714/1812 15005KT P6SM SCT020
Wind
  • 150° at 5 KTS
Cloud Levels
  • Scattered at 2,000' AGL

Oct-17@
14:00 UTC

Oct-17 @ 14:00 UTC

Oct-17@
15:00 UTC

Oct-17 @ 15:00 UTC

TEMPO 1714/1715 1/4SM FG BKN001

Expired

Conditions
Fog
Cloud Levels
  • Broken at 100' AGL

Oct-17@
18:00 UTC

Oct-17 @ 18:00 UTC

Oct-18@
10:00 UTC

Oct-18 @ 10:00 UTC

FM171800 15007KT P6SM SKC

From

From Standard forecast or significant change

Wind
  • 150° at 7 KTS
Cloud Levels
  • Clear skies

Oct-18@
10:00 UTC

Oct-18 @ 10:00 UTC

Oct-18@
12:00 UTC

Oct-18 @ 12:00 UTC

FM181000 13010KT P6SM SCT200 WS020/18040KT

From

From Standard forecast or significant change

Wind
  • 130° at 10 KTS
Cloud Levels
  • Scattered at 20,000' AGL